Time,TemperatureF,DewpointF,PressureIn,WindDirection,WindDirectionDegrees,WindSpeedMPH,WindSpeedGustMPH,Humidity,HourlyPrecipIn,Conditions,Clouds,dailyrainin,SolarRadiationWatts/m^2,SoftwareType,DateUTC
2013-04-10 10:57:00,43.8,28.0,30.27,SE,139,6.0,7.0,54,0.00,,,0.00,158,weatherlink.com 1.10,2013-04-10 16:57:00,
2013-04-10 11:07:00,44.0,28.0,30.26,SSE,160,7.0,9.0,54,0.00,,,0.00,142,weatherlink.com 1.10,2013-04-10 17:07:00,
2013-04-10 11:22:00,44.0,28.0,30.25,SSE,165,0.0,8.0,54,0.00,,,0.00,260,weatherlink.com 1.10,2013-04-10 17:22:00,
2013-04-10 11:37:00,44.6,29.0,30.24,SSW,192,1.0,6.0,54,0.00,,,0.00,246,weatherlink.com 1.10,2013-04-10 17:37:00,
2013-04-10 11:52:00,45.3,29.0,30.23,SSE,166,5.0,10.0,53,0.00,,,0.00,325,weatherlink.com 1.10,2013-04-10 17:52:00,
2013-04-10 12:07:00,45.7,29.0,30.21,South,175,5.0,7.0,53,0.00,,,0.00,313,weatherlink.com 1.10,2013-04-10 18:07:00,
2013-04-10 12:22:00,46.3,30.0,30.21,South,177,2.0,6.0,54,0.00,,,0.00,216,weatherlink.com 1.10,2013-04-10 18:22:00,
2013-04-10 12:37:00,47.2,31.0,30.18,SSE,162,0.0,6.0,53,0.00,,,0.00,385,weatherlink.com 1.10,2013-04-10 18:37:00,
2013-04-10 12:52:00,48.6,31.0,30.17,SSE,163,4.0,9.0,52,0.00,,,0.00,519,weatherlink.com 1.10,2013-04-10 18:52:00,
2013-04-10 13:07:00,49.1,31.0,30.14,South,183,5.0,10.0,51,0.00,,,0.00,473,weatherlink.com 1.10,2013-04-10 19:07:00,
2013-04-10 13:22:00,50.4,33.0,30.13,SW,216,2.0,9.0,51,0.00,,,0.00,301,weatherlink.com 1.10,2013-04-10 19:22:00,
2013-04-10 13:38:00,51.2,33.0,30.11,SW,217,6.0,11.0,50,0.00,,,0.00,452,weatherlink.com 1.10,2013-04-10 19:38:00,
2013-04-10 13:53:00,52.4,34.0,30.10,SSW,209,5.0,16.0,49,0.00,,,0.00,288,weatherlink.com 1.10,2013-04-10 19:53:00,
2013-04-10 14:08:00,52.7,33.0,30.09,SE,146,9.0,18.0,48,0.00,,,0.00,352,weatherlink.com 1.10,2013-04-10 20:08:00,
2013-04-10 14:23:00,53.7,34.0,30.07,SSE,164,13.0,21.0,48,0.00,,,0.00,494,weatherlink.com 1.10,2013-04-10 20:23:00,
2013-04-10 14:38:00,53.8,34.0,30.06,South,189,10.0,17.0,48,0.00,,,0.00,309,weatherlink.com 1.10,2013-04-10 20:38:00,
2013-04-10 14:53:00,54.4,35.0,30.05,SSW,197,6.0,13.0,49,0.00,,,0.00,362,weatherlink.com 1.10,2013-04-10 20:53:00,
2013-04-10 15:08:00,54.4,35.0,30.03,South,185,8.0,13.0,48,0.00,,,0.00,262,weatherlink.com 1.10,2013-04-10 21:08:00,
2013-04-10 15:23:00,54.9,36.0,30.02,SSE,167,12.0,15.0,49,0.00,,,0.00,371,weatherlink.com 1.10,2013-04-10 21:23:00,
2013-04-10 15:38:00,54.9,36.0,30.02,South,177,6.0,17.0,50,0.00,,,0.00,109,weatherlink.com 1.10,2013-04-10 21:38:00,
2013-04-10 16:08:00,53.3,38.0,30.00,SSW,206,2.0,8.0,56,0.00,,,0.00,142,weatherlink.com 1.10,2013-04-10 22:08:00,
2013-04-10 16:23:00,53.8,39.0,29.99,SSE,154,5.0,10.0,58,0.00,,,0.00,276,weatherlink.com 1.10,2013-04-10 22:23:00,
2013-04-10 16:38:00,54.1,40.0,29.99,South,183,7.0,16.0,59,0.00,,,0.00,190,weatherlink.com 1.10,2013-04-10 22:38:00,
2013-04-10 16:53:00,52.8,40.0,29.97,South,170,12.0,18.0,63,0.00,,,0.00,132,weatherlink.com 1.10,2013-04-10 22:53:00,
2013-04-10 17:08:00,52.4,41.0,29.96,South,174,9.0,16.0,66,0.00,,,0.00,156,weatherlink.com 1.10,2013-04-10 23:08:00,
2013-04-10 17:23:00,52.7,42.0,29.95,SSW,198,2.0,9.0,67,0.00,,,0.00,174,weatherlink.com 1.10,2013-04-10 23:23:00,
2013-04-10 17:38:00,52.6,41.0,29.95,North,11,4.0,6.0,66,0.00,,,0.00,69,weatherlink.com 1.10,2013-04-10 23:38:00,
2013-04-10 17:53:00,52.3,42.0,29.94,WNW,300,3.0,5.0,67,0.00,,,0.00,74,weatherlink.com 1.10,2013-04-10 23:53:00,
2013-04-10 18:08:00,51.9,42.0,29.96,NW,319,7.0,10.0,70,0.00,,,0.00,49,weatherlink.com 1.10,2013-04-11 00:08:00,
2013-04-10 18:23:00,51.0,43.0,29.96,NNW,329,3.0,7.0,74,0.00,,,0.00,28,weatherlink.com 1.10,2013-04-11 00:23:00,
2013-04-10 18:38:00,50.6,43.0,29.96,WNW,284,4.0,4.0,76,0.00,,,0.00,23,weatherlink.com 1.10,2013-04-11 00:38:00,
2013-04-10 18:53:00,50.5,44.0,29.96,ENE,61,7.0,7.0,78,0.00,,,0.00,49,weatherlink.com 1.10,2013-04-11 00:53:00,
2013-04-10 19:08:00,50.8,40.0,29.97,ENE,69,4.0,9.0,66,0.00,,,0.00,25,weatherlink.com 1.10,2013-04-11 01:08:00,
2013-04-10 19:23:00,51.0,38.0,29.96,NE,48,5.0,13.0,62,0.00,,,0.00,51,weatherlink.com 1.10,2013-04-11 01:23:00,
2013-04-10 19:38:00,49.9,39.0,29.97,NW,318,7.0,10.0,66,0.00,,,0.00,30,weatherlink.com 1.10,2013-04-11 01:38:00,
2013-04-10 19:53:00,49.8,38.0,29.96,North,10,2.0,8.0,63,0.00,,,0.00,9,weatherlink.com 1.10,2013-04-11 01:53:00,
2013-04-10 20:08:00,49.6,39.0,29.97,SE,139,6.0,8.0,66,0.00,,,0.00,0,weatherlink.com 1.10,2013-04-11 02:08:00,
2013-04-10 20:24:00,48.7,39.0,29.99,WSW,252,10.0,12.0,68,0.00,,,0.00,0,weatherlink.com 1.10,2013-04-11 02:24:00,
2013-04-10 20:38:00,47.8,40.0,30.02,North,8,8.0,16.0,73,0.00,,,0.00,0,weatherlink.com 1.10,2013-04-11 02:38:00,
2013-04-10 20:53:00,44.5,39.0,30.01,North,4,12.0,15.0,81,0.00,,,0.00,0,weatherlink.com 1.10,2013-04-11 02:53:00,
2013-04-10 21:38:00,44.7,38.0,30.02,NNW,343,9.0,14.0,78,0.00,,,0.00,0,weatherlink.com 1.10,2013-04-11 03:38:00,
2013-04-10 21:53:00,44.1,38.0,30.02,NNW,345,12.0,13.0,79,0.00,,,0.00,0,weatherlink.com 1.10,2013-04-11 03:53:00,
2013-04-10 22:08:00,44.2,38.0,30.03,North,351,7.0,12.0,79,0.00,,,0.00,0,weatherlink.com 1.10,2013-04-11 04:08:00,
2013-04-10 22:23:00,43.6,39.0,30.05,NW,314,11.0,13.0,83,0.00,,,0.00,0,weatherlink.com 1.10,2013-04-11 04:23:00,
2013-04-10 22:38:00,42.2,38.0,30.04,North,9,7.0,14.0,85,0.00,,,0.00,0,weatherlink.com 1.10,2013-04-11 04:38:00,
2013-04-10 22:53:00,41.9,38.0,30.05,NNE,27,9.0,17.0,85,0.00,,,0.00,0,weatherlink.com 1.10,2013-04-11 04:53:00,
2013-04-10 23:08:00,42.8,37.0,30.05,NNW,340,8.0,12.0,80,0.00,,,0.00,0,weatherlink.com 1.10,2013-04-11 05:08:00,
2013-04-10 23:24:00,42.9,37.0,30.05,NNE,30,4.0,9.0,79,0.00,,,0.00,0,weatherlink.com 1.10,2013-04-11 05:24:00,
2013-04-10 23:39:00,43.4,37.0,30.04,North,351,7.0,13.0,78,0.00,,,0.00,0,weatherlink.com 1.10,2013-04-11 05:39:00,
2013-04-10 23:54:00,41.5,37.0,30.05,NNW,343,0.0,4.0,83,0.00,,,0.00,0,weatherlink.com 1.10,2013-04-11 05:54:00,